sensor_id;sensor_type;location;lat;lon;timestamp;P1;durP1;ratioP1;P2;durP2;ratioP2
10045;SDS011;5063;50.878;4.742;2022-08-01T00:01:09;1.48;;;1.25;;
10045;SDS011;5063;50.878;4.742;2022-08-01T00:03:36;3.58;;;1.60;;
10045;SDS011;5063;50.878;4.742;2022-08-01T00:06:02;3.80;;;1.70;;
10045;SDS011;5063;50.878;4.742;2022-08-01T00:08:28;3.20;;;1.30;;
10045;SDS011;5063;50.878;4.742;2022-08-01T00:10:54;3.72;;;1.67;;
10045;SDS011;5063;50.878;4.742;2022-08-01T00:13:19;4.40;;;1.88;;
10045;SDS011;5063;50.878;4.742;2022-08-01T00:15:45;1.55;;;1.45;;
10045;SDS011;5063;50.878;4.742;2022-08-01T00:18:11;2.63;;;1.70;;
10045;SDS011;5063;50.878;4.742;2022-08-01T00:20:36;3.30;;;1.80;;
10045;SDS011;5063;50.878;4.742;2022-08-01T00:23:03;2.17;;;2.00;;
10045;SDS011;5063;50.878;4.742;2022-08-01T00:25:29;5.20;;;2.33;;
10045;SDS011;5063;50.878;4.742;2022-08-01T00:27:54;4.88;;;3.05;;
10045;SDS011;5063;50.878;4.742;2022-08-01T00:30:20;4.13;;;2.10;;
10045;SDS011;5063;50.878;4.742;2022-08-01T00:32:46;5.00;;;2.83;;
10045;SDS011;5063;50.878;4.742;2022-08-01T00:35:11;4.32;;;2.80;;
10045;SDS011;5063;50.878;4.742;2022-08-01T00:37:38;4.40;;;2.45;;
10045;SDS011;5063;50.878;4.742;2022-08-01T00:40:04;4.30;;;2.75;;
10045;SDS011;5063;50.878;4.742;2022-08-01T00:42:31;4.70;;;2.90;;
10045;SDS011;5063;50.878;4.742;2022-08-01T00:44:56;6.70;;;2.90;;
10045;SDS011;5063;50.878;4.742;2022-08-01T00:47:22;4.60;;;2.75;;
10045;SDS011;5063;50.878;4.742;2022-08-01T00:49:48;4.68;;;2.47;;
10045;SDS011;5063;50.878;4.742;2022-08-01T00:52:14;3.13;;;2.65;;
10045;SDS011;5063;50.878;4.742;2022-08-01T00:54:39;4.35;;;2.65;;
10045;SDS011;5063;50.878;4.742;2022-08-01T00:57:05;2.70;;;2.20;;
10045;SDS011;5063;50.878;4.742;2022-08-01T00:59:31;3.42;;;2.65;;
10045;SDS011;5063;50.878;4.742;2022-08-01T01:01:58;5.30;;;2.95;;
10045;SDS011;5063;50.878;4.742;2022-08-01T01:04:26;5.35;;;2.65;;
10045;SDS011;5063;50.878;4.742;2022-08-01T01:09:27;4.37;;;3.00;;
10045;SDS011;5063;50.878;4.742;2022-08-01T01:14:51;3.78;;;2.80;;
10045;SDS011;5063;50.878;4.742;2022-08-01T01:17:32;3.50;;;2.70;;
10045;SDS011;5063;50.878;4.742;2022-08-01T01:20:02;4.95;;;3.38;;
10045;SDS011;5063;50.878;4.742;2022-08-01T01:22:47;5.03;;;3.20;;
10045;SDS011;5063;50.878;4.742;2022-08-01T01:31:17;5.20;;;2.78;;
10045;SDS011;5063;50.878;4.742;2022-08-01T01:33:46;4.82;;;3.30;;
10045;SDS011;5063;50.878;4.742;2022-08-01T01:36:13;6.65;;;3.47;;
10045;SDS011;5063;50.878;4.742;2022-08-01T01:38:42;3.80;;;3.28;;
10045;SDS011;5063;50.878;4.742;2022-08-01T01:41:11;4.75;;;3.08;;
10045;SDS011;5063;50.878;4.742;2022-08-01T01:43:39;5.10;;;3.70;;
10045;SDS011;5063;50.878;4.742;2022-08-01T01:46:05;6.80;;;3.83;;
10045;SDS011;5063;50.878;4.742;2022-08-01T01:48:33;7.00;;;4.05;;
10045;SDS011;5063;50.878;4.742;2022-08-01T01:51:03;4.80;;;3.67;;
10045;SDS011;5063;50.878;4.742;2022-08-01T01:53:30;4.85;;;3.92;;
10045;SDS011;5063;50.878;4.742;2022-08-01T01:55:58;5.22;;;3.65;;
10045;SDS011;5063;50.878;4.742;2022-08-01T01:58:25;4.13;;;3.20;;
10045;SDS011;5063;50.878;4.742;2022-08-01T02:00:55;5.53;;;3.53;;
10045;SDS011;5063;50.878;4.742;2022-08-01T02:03:23;7.18;;;3.88;;
10045;SDS011;5063;50.878;4.742;2022-08-01T02:05:54;5.50;;;3.63;;
10045;SDS011;5063;50.878;4.742;2022-08-01T02:08:22;6.15;;;3.75;;
10045;SDS011;5063;50.878;4.742;2022-08-01T02:10:50;7.80;;;3.88;;
10045;SDS011;5063;50.878;4.742;2022-08-01T02:13:37;5.37;;;3.70;;
10045;SDS011;5063;50.878;4.742;2022-08-01T02:16:05;4.72;;;3.55;;
10045;SDS011;5063;50.878;4.742;2022-08-01T02:18:32;6.28;;;4.07;;
10045;SDS011;5063;50.878;4.742;2022-08-01T02:20:58;7.73;;;3.77;;
10045;SDS011;5063;50.878;4.742;2022-08-01T02:23:27;3.60;;;3.03;;
10045;SDS011;5063;50.878;4.742;2022-08-01T02:25:57;4.15;;;3.65;;
10045;SDS011;5063;50.878;4.742;2022-08-01T02:28:29;5.15;;;3.45;;
10045;SDS011;5063;50.878;4.742;2022-08-01T02:31:06;3.58;;;3.28;;
10045;SDS011;5063;50.878;4.742;2022-08-01T02:33:41;4.75;;;3.22;;
10045;SDS011;5063;50.878;4.742;2022-08-01T02:36:11;5.68;;;3.67;;
10045;SDS011;5063;50.878;4.742;2022-08-01T02:38:40;4.03;;;3.03;;
10045;SDS011;5063;50.878;4.742;2022-08-01T02:41:08;4.63;;;3.45;;
10045;SDS011;5063;50.878;4.742;2022-08-01T02:43:38;4.30;;;3.80;;
10045;SDS011;5063;50.878;4.742;2022-08-01T02:46:08;8.02;;;4.43;;
10045;SDS011;5063;50.878;4.742;2022-08-01T02:48:43;8.02;;;4.60;;
10045;SDS011;5063;50.878;4.742;2022-08-01T02:51:10;5.93;;;3.97;;
10045;SDS011;5063;50.878;4.742;2022-08-01T02:53:38;5.28;;;4.10;;
10045;SDS011;5063;50.878;4.742;2022-08-01T02:56:06;5.35;;;4.32;;
10045;SDS011;5063;50.878;4.742;2022-08-01T02:58:35;5.18;;;3.78;;
10045;SDS011;5063;50.878;4.742;2022-08-01T03:01:03;4.00;;;3.60;;
10045;SDS011;5063;50.878;4.742;2022-08-01T03:03:31;5.53;;;3.83;;
10045;SDS011;5063;50.878;4.742;2022-08-01T03:05:58;4.97;;;4.18;;
10045;SDS011;5063;50.878;4.742;2022-08-01T03:08:25;5.82;;;4.50;;
10045;SDS011;5063;50.878;4.742;2022-08-01T03:10:54;8.63;;;5.18;;
10045;SDS011;5063;50.878;4.742;2022-08-01T03:13:21;5.10;;;4.25;;
10045;SDS011;5063;50.878;4.742;2022-08-01T03:15:49;6.68;;;5.20;;
10045;SDS011;5063;50.878;4.742;2022-08-01T03:18:16;6.70;;;5.95;;
10045;SDS011;5063;50.878;4.742;2022-08-01T03:20:43;8.35;;;6.35;;
10045;SDS011;5063;50.878;4.742;2022-08-01T03:23:11;6.90;;;5.50;;
10045;SDS011;5063;50.878;4.742;2022-08-01T03:25:39;9.10;;;6.27;;
10045;SDS011;5063;50.878;4.742;2022-08-01T03:28:06;10.30;;;6.60;;
10045;SDS011;5063;50.878;4.742;2022-08-01T03:30:34;7.83;;;6.37;;
10045;SDS011;5063;50.878;4.742;2022-08-01T03:33:02;10.53;;;6.80;;
10045;SDS011;5063;50.878;4.742;2022-08-01T03:35:30;7.95;;;6.45;;
10045;SDS011;5063;50.878;4.742;2022-08-01T03:38:01;9.63;;;6.53;;
10045;SDS011;5063;50.878;4.742;2022-08-01T03:40:30;14.27;;;9.75;;
10045;SDS011;5063;50.878;4.742;2022-08-01T03:43:02;15.40;;;9.00;;
10045;SDS011;5063;50.878;4.742;2022-08-01T03:45:35;11.57;;;9.30;;
10045;SDS011;5063;50.878;4.742;2022-08-01T03:48:06;11.00;;;9.13;;
10045;SDS011;5063;50.878;4.742;2022-08-01T03:50:36;15.93;;;9.50;;
10045;SDS011;5063;50.878;4.742;2022-08-01T03:53:07;18.60;;;11.27;;
10045;SDS011;5063;50.878;4.742;2022-08-01T03:55:35;17.70;;;11.20;;
10045;SDS011;5063;50.878;4.742;2022-08-01T03:58:02;18.53;;;11.10;;
10045;SDS011;5063;50.878;4.742;2022-08-01T04:00:29;16.02;;;10.75;;
10045;SDS011;5063;50.878;4.742;2022-08-01T04:02:56;19.70;;;11.50;;
10045;SDS011;5063;50.878;4.742;2022-08-01T04:05:24;16.67;;;11.83;;
10045;SDS011;5063;50.878;4.742;2022-08-01T04:07:50;17.03;;;10.33;;
10045;SDS011;5063;50.878;4.742;2022-08-01T04:10:22;18.23;;;12.17;;
10045;SDS011;5063;50.878;4.742;2022-08-01T04:12:49;18.83;;;12.60;;
10045;SDS011;5063;50.878;4.742;2022-08-01T04:15:15;20.40;;;11.97;;
10045;SDS011;5063;50.878;4.742;2022-08-01T04:17:41;22.03;;;12.33;;
10045;SDS011;5063;50.878;4.742;2022-08-01T04:20:09;19.60;;;11.80;;
10045;SDS011;5063;50.878;4.742;2022-08-01T04:22:36;16.07;;;12.17;;
10045;SDS011;5063;50.878;4.742;2022-08-01T04:25:03;19.60;;;12.10;;
10045;SDS011;5063;50.878;4.742;2022-08-01T04:27:35;18.07;;;12.50;;
10045;SDS011;5063;50.878;4.742;2022-08-01T04:30:03;18.27;;;12.60;;
10045;SDS011;5063;50.878;4.742;2022-08-01T04:32:31;19.47;;;13.07;;
10045;SDS011;5063;50.878;4.742;2022-08-01T04:35:03;19.20;;;12.93;;
10045;SDS011;5063;50.878;4.742;2022-08-01T04:37:32;17.40;;;12.57;;
10045;SDS011;5063;50.878;4.742;2022-08-01T04:40:03;21.20;;;13.07;;
10045;SDS011;5063;50.878;4.742;2022-08-01T04:42:31;16.80;;;13.00;;
10045;SDS011;5063;50.878;4.742;2022-08-01T04:44:59;18.73;;;12.40;;
10045;SDS011;5063;50.878;4.742;2022-08-01T04:47:26;18.07;;;12.57;;
10045;SDS011;5063;50.878;4.742;2022-08-01T04:49:52;18.88;;;12.75;;
10045;SDS011;5063;50.878;4.742;2022-08-01T04:52:19;15.00;;;11.50;;
10045;SDS011;5063;50.878;4.742;2022-08-01T04:54:45;19.53;;;12.30;;
10045;SDS011;5063;50.878;4.742;2022-08-01T04:57:11;20.33;;;12.27;;
10045;SDS011;5063;50.878;4.742;2022-08-01T04:59:38;17.63;;;11.97;;
10045;SDS011;5063;50.878;4.742;2022-08-01T05:02:08;18.53;;;12.33;;
10045;SDS011;5063;50.878;4.742;2022-08-01T05:04:34;16.40;;;11.40;;
10045;SDS011;5063;50.878;4.742;2022-08-01T05:07:00;16.53;;;11.23;;
10045;SDS011;5063;50.878;4.742;2022-08-01T05:09:26;14.07;;;11.37;;
10045;SDS011;5063;50.878;4.742;2022-08-01T05:11:52;13.77;;;11.50;;
10045;SDS011;5063;50.878;4.742;2022-08-01T05:14:18;18.57;;;12.27;;
10045;SDS011;5063;50.878;4.742;2022-08-01T05:16:44;14.33;;;10.83;;
10045;SDS011;5063;50.878;4.742;2022-08-01T05:19:13;14.93;;;11.93;;
10045;SDS011;5063;50.878;4.742;2022-08-01T05:21:38;17.00;;;11.03;;
10045;SDS011;5063;50.878;4.742;2022-08-01T05:24:04;17.00;;;9.83;;
10045;SDS011;5063;50.878;4.742;2022-08-01T05:26:30;13.73;;;9.63;;
10045;SDS011;5063;50.878;4.742;2022-08-01T05:28:56;15.40;;;10.30;;
10045;SDS011;5063;50.878;4.742;2022-08-01T05:31:22;13.97;;;10.77;;
10045;SDS011;5063;50.878;4.742;2022-08-01T05:33:48;11.70;;;8.77;;
10045;SDS011;5063;50.878;4.742;2022-08-01T05:36:14;10.90;;;8.43;;
10045;SDS011;5063;50.878;4.742;2022-08-01T05:38:39;12.30;;;8.77;;
10045;SDS011;5063;50.878;4.742;2022-08-01T05:41:05;12.73;;;8.27;;
10045;SDS011;5063;50.878;4.742;2022-08-01T05:43:31;12.33;;;9.23;;
10045;SDS011;5063;50.878;4.742;2022-08-01T05:45:57;12.80;;;8.18;;
10045;SDS011;5063;50.878;4.742;2022-08-01T05:48:23;13.52;;;8.80;;
10045;SDS011;5063;50.878;4.742;2022-08-01T05:50:49;10.73;;;8.20;;
10045;SDS011;5063;50.878;4.742;2022-08-01T05:53:15;9.13;;;8.23;;
10045;SDS011;5063;50.878;4.742;2022-08-01T05:55:41;13.15;;;9.77;;
10045;SDS011;5063;50.878;4.742;2022-08-01T05:58:07;11.45;;;8.77;;
10045;SDS011;5063;50.878;4.742;2022-08-01T06:00:33;11.88;;;9.30;;
10045;SDS011;5063;50.878;4.742;2022-08-01T06:02:58;11.95;;;8.55;;
10045;SDS011;5063;50.878;4.742;2022-08-01T06:05:24;12.50;;;8.82;;
10045;SDS011;5063;50.878;4.742;2022-08-01T06:07:50;10.77;;;8.80;;
10045;SDS011;5063;50.878;4.742;2022-08-01T06:10:16;12.63;;;8.73;;
10045;SDS011;5063;50.878;4.742;2022-08-01T06:12:41;10.68;;;8.38;;
10045;SDS011;5063;50.878;4.742;2022-08-01T06:15:08;9.88;;;7.93;;
10045;SDS011;5063;50.878;4.742;2022-08-01T06:17:35;8.15;;;6.68;;
10045;SDS011;5063;50.878;4.742;2022-08-01T06:20:00;12.48;;;7.80;;
10045;SDS011;5063;50.878;4.742;2022-08-01T06:22:27;7.70;;;6.95;;
10045;SDS011;5063;50.878;4.742;2022-08-01T06:24:52;10.80;;;6.95;;
10045;SDS011;5063;50.878;4.742;2022-08-01T06:27:18;11.32;;;7.35;;
10045;SDS011;5063;50.878;4.742;2022-08-01T06:29:44;11.60;;;7.82;;
10045;SDS011;5063;50.878;4.742;2022-08-01T06:32:10;10.27;;;7.30;;
10045;SDS011;5063;50.878;4.742;2022-08-01T06:34:36;8.90;;;6.43;;
10045;SDS011;5063;50.878;4.742;2022-08-01T06:37:01;6.70;;;5.78;;
10045;SDS011;5063;50.878;4.742;2022-08-01T06:39:27;12.45;;;6.70;;
10045;SDS011;5063;50.878;4.742;2022-08-01T06:41:53;10.00;;;7.07;;
10045;SDS011;5063;50.878;4.742;2022-08-01T06:44:18;9.10;;;7.22;;
10045;SDS011;5063;50.878;4.742;2022-08-01T06:46:47;9.93;;;8.30;;
10045;SDS011;5063;50.878;4.742;2022-08-01T06:49:12;11.32;;;8.45;;
10045;SDS011;5063;50.878;4.742;2022-08-01T06:51:38;14.60;;;9.57;;
10045;SDS011;5063;50.878;4.742;2022-08-01T06:54:04;11.35;;;9.43;;
10045;SDS011;5063;50.878;4.742;2022-08-01T06:56:30;11.98;;;10.15;;
10045;SDS011;5063;50.878;4.742;2022-08-01T06:58:55;10.02;;;8.75;;
10045;SDS011;5063;50.878;4.742;2022-08-01T07:01:26;10.15;;;8.30;;
10045;SDS011;5063;50.878;4.742;2022-08-01T07:03:53;7.93;;;7.18;;
10045;SDS011;5063;50.878;4.742;2022-08-01T07:06:19;8.93;;;7.65;;
10045;SDS011;5063;50.878;4.742;2022-08-01T07:08:46;7.80;;;7.05;;
10045;SDS011;5063;50.878;4.742;2022-08-01T07:11:11;8.27;;;7.40;;
10045;SDS011;5063;50.878;4.742;2022-08-01T07:13:37;7.45;;;6.55;;
10045;SDS011;5063;50.878;4.742;2022-08-01T07:16:03;7.55;;;5.82;;
10045;SDS011;5063;50.878;4.742;2022-08-01T07:18:28;5.30;;;4.20;;
10045;SDS011;5063;50.878;4.742;2022-08-01T07:20:54;6.90;;;4.57;;
10045;SDS011;5063;50.878;4.742;2022-08-01T07:23:20;8.80;;;4.43;;
10045;SDS011;5063;50.878;4.742;2022-08-01T07:25:46;9.48;;;4.10;;
10045;SDS011;5063;50.878;4.742;2022-08-01T07:28:13;7.60;;;4.10;;
10045;SDS011;5063;50.878;4.742;2022-08-01T07:30:40;5.88;;;4.00;;
10045;SDS011;5063;50.878;4.742;2022-08-01T07:33:07;7.43;;;3.75;;
10045;SDS011;5063;50.878;4.742;2022-08-01T07:35:33;5.60;;;4.30;;
10045;SDS011;5063;50.878;4.742;2022-08-01T07:37:59;4.90;;;3.78;;
10045;SDS011;5063;50.878;4.742;2022-08-01T07:40:25;6.25;;;4.45;;
10045;SDS011;5063;50.878;4.742;2022-08-01T07:42:50;5.97;;;4.07;;
10045;SDS011;5063;50.878;4.742;2022-08-01T07:45:16;6.88;;;4.25;;
10045;SDS011;5063;50.878;4.742;2022-08-01T07:47:42;7.25;;;4.60;;
10045;SDS011;5063;50.878;4.742;2022-08-01T07:50:08;6.68;;;4.70;;
10045;SDS011;5063;50.878;4.742;2022-08-01T07:52:34;5.70;;;5.10;;
10045;SDS011;5063;50.878;4.742;2022-08-01T07:54:59;6.47;;;4.40;;
10045;SDS011;5063;50.878;4.742;2022-08-01T07:57:25;5.25;;;4.72;;
10045;SDS011;5063;50.878;4.742;2022-08-01T07:59:53;4.72;;;4.22;;
10045;SDS011;5063;50.878;4.742;2022-08-01T08:02:19;5.38;;;4.35;;
10045;SDS011;5063;50.878;4.742;2022-08-01T08:04:45;6.47;;;4.00;;
10045;SDS011;5063;50.878;4.742;2022-08-01T08:07:11;7.43;;;4.40;;
10045;SDS011;5063;50.878;4.742;2022-08-01T08:09:41;6.22;;;4.15;;
10045;SDS011;5063;50.878;4.742;2022-08-01T08:12:09;4.65;;;4.25;;
10045;SDS011;5063;50.878;4.742;2022-08-01T08:14:35;4.30;;;3.70;;
10045;SDS011;5063;50.878;4.742;2022-08-01T08:17:01;4.20;;;3.50;;
10045;SDS011;5063;50.878;4.742;2022-08-01T08:19:27;5.78;;;3.05;;
10045;SDS011;5063;50.878;4.742;2022-08-01T08:21:53;4.10;;;3.47;;
10045;SDS011;5063;50.878;4.742;2022-08-01T08:24:18;6.22;;;2.70;;
10045;SDS011;5063;50.878;4.742;2022-08-01T08:26:49;3.60;;;2.90;;
10045;SDS011;5063;50.878;4.742;2022-08-01T08:29:18;3.67;;;3.13;;
10045;SDS011;5063;50.878;4.742;2022-08-01T08:31:44;4.15;;;2.80;;
10045;SDS011;5063;50.878;4.742;2022-08-01T08:34:10;5.85;;;2.85;;
10045;SDS011;5063;50.878;4.742;2022-08-01T08:36:37;4.63;;;2.67;;
10045;SDS011;5063;50.878;4.742;2022-08-01T08:39:03;3.35;;;2.80;;
10045;SDS011;5063;50.878;4.742;2022-08-01T08:41:29;2.83;;;2.63;;
10045;SDS011;5063;50.878;4.742;2022-08-01T08:43:56;3.78;;;2.70;;
10045;SDS011;5063;50.878;4.742;2022-08-01T08:46:26;5.20;;;3.15;;
10045;SDS011;5063;50.878;4.742;2022-08-01T08:48:52;3.30;;;3.00;;
10045;SDS011;5063;50.878;4.742;2022-08-01T08:51:19;2.75;;;2.55;;
10045;SDS011;5063;50.878;4.742;2022-08-01T08:53:46;3.22;;;2.65;;
10045;SDS011;5063;50.878;4.742;2022-08-01T08:56:13;2.85;;;2.53;;
10045;SDS011;5063;50.878;4.742;2022-08-01T08:58:43;3.22;;;2.58;;
10045;SDS011;5063;50.878;4.742;2022-08-01T09:01:10;2.85;;;2.55;;
10045;SDS011;5063;50.878;4.742;2022-08-01T09:03:37;2.53;;;2.33;;
10045;SDS011;5063;50.878;4.742;2022-08-01T09:06:04;2.20;;;2.00;;
10045;SDS011;5063;50.878;4.742;2022-08-01T09:08:30;3.95;;;2.83;;
10045;SDS011;5063;50.878;4.742;2022-08-01T09:10:57;2.92;;;2.50;;
10045;SDS011;5063;50.878;4.742;2022-08-01T09:13:23;9.27;;;2.35;;
10045;SDS011;5063;50.878;4.742;2022-08-01T09:15:50;2.70;;;2.50;;
10045;SDS011;5063;50.878;4.742;2022-08-01T09:21:10;3.05;;;2.55;;
10045;SDS011;5063;50.878;4.742;2022-08-01T09:23:51;2.30;;;2.10;;
10045;SDS011;5063;50.878;4.742;2022-08-01T09:26:20;2.65;;;2.30;;
10045;SDS011;5063;50.878;4.742;2022-08-01T09:28:52;2.38;;;2.13;;
10045;SDS011;5063;50.878;4.742;2022-08-01T09:31:18;2.55;;;2.28;;
10045;SDS011;5063;50.878;4.742;2022-08-01T09:36:27;5.57;;;2.40;;
10045;SDS011;5063;50.878;4.742;2022-08-01T09:39:13;2.58;;;2.20;;
10045;SDS011;5063;50.878;4.742;2022-08-01T09:41:42;3.63;;;2.72;;
10045;SDS011;5063;50.878;4.742;2022-08-01T09:44:08;3.00;;;2.63;;
10045;SDS011;5063;50.878;4.742;2022-08-01T09:46:33;3.38;;;2.67;;
10045;SDS011;5063;50.878;4.742;2022-08-01T09:49:00;2.80;;;2.60;;
10045;SDS011;5063;50.878;4.742;2022-08-01T09:51:33;4.70;;;2.90;;
10045;SDS011;5063;50.878;4.742;2022-08-01T09:54:01;4.53;;;2.40;;
10045;SDS011;5063;50.878;4.742;2022-08-01T09:56:39;9.20;;;3.20;;
10045;SDS011;5063;50.878;4.742;2022-08-01T09:59:07;2.92;;;2.72;;
10045;SDS011;5063;50.878;4.742;2022-08-01T10:01:44;3.55;;;2.50;;
10045;SDS011;5063;50.878;4.742;2022-08-01T10:04:12;6.03;;;2.92;;
10045;SDS011;5063;50.878;4.742;2022-08-01T10:06:41;2.83;;;2.63;;
10045;SDS011;5063;50.878;4.742;2022-08-01T10:09:10;2.67;;;2.13;;
10045;SDS011;5063;50.878;4.742;2022-08-01T10:11:37;2.50;;;2.40;;
10045;SDS011;5063;50.878;4.742;2022-08-01T10:14:05;3.95;;;2.20;;
10045;SDS011;5063;50.878;4.742;2022-08-01T10:16:32;2.92;;;2.63;;
10045;SDS011;5063;50.878;4.742;2022-08-01T10:19:01;3.25;;;2.17;;
10045;SDS011;5063;50.878;4.742;2022-08-01T10:21:30;2.30;;;2.10;;
10045;SDS011;5063;50.878;4.742;2022-08-01T10:23:58;2.88;;;1.88;;
10045;SDS011;5063;50.878;4.742;2022-08-01T10:26:25;2.50;;;2.08;;
10045;SDS011;5063;50.878;4.742;2022-08-01T10:28:51;3.05;;;1.70;;
10045;SDS011;5063;50.878;4.742;2022-08-01T10:31:19;1.88;;;1.77;;
10045;SDS011;5063;50.878;4.742;2022-08-01T10:33:45;2.03;;;1.92;;
10045;SDS011;5063;50.878;4.742;2022-08-01T10:36:11;1.75;;;1.65;;
10045;SDS011;5063;50.878;4.742;2022-08-01T10:38:37;2.47;;;2.28;;
10045;SDS011;5063;50.878;4.742;2022-08-01T10:41:04;2.42;;;2.00;;
10045;SDS011;5063;50.878;4.742;2022-08-01T10:43:30;2.00;;;1.80;;
10045;SDS011;5063;50.878;4.742;2022-08-01T10:45:56;1.92;;;1.80;;
10045;SDS011;5063;50.878;4.742;2022-08-01T10:51:01;3.47;;;1.98;;
10045;SDS011;5063;50.878;4.742;2022-08-01T10:53:30;2.45;;;1.70;;
10045;SDS011;5063;50.878;4.742;2022-08-01T10:56:04;2.78;;;1.73;;
10045;SDS011;5063;50.878;4.742;2022-08-01T10:58:36;2.30;;;2.10;;
10045;SDS011;5063;50.878;4.742;2022-08-01T11:01:15;3.20;;;1.80;;
10045;SDS011;5063;50.878;4.742;2022-08-01T11:09:00;2.53;;;2.28;;
10045;SDS011;5063;50.878;4.742;2022-08-01T11:11:30;2.13;;;2.00;;
10045;SDS011;5063;50.878;4.742;2022-08-01T11:16:30;4.20;;;2.40;;
10045;SDS011;5063;50.878;4.742;2022-08-01T11:18:57;3.20;;;2.13;;
10045;SDS011;5063;50.878;4.742;2022-08-01T11:27:17;2.30;;;2.10;;
10045;SDS011;5063;50.878;4.742;2022-08-01T11:32:54;1.92;;;1.83;;
10045;SDS011;5063;50.878;4.742;2022-08-01T11:35:22;1.92;;;1.83;;
10045;SDS011;5063;50.878;4.742;2022-08-01T11:37:50;1.90;;;1.80;;
10045;SDS011;5063;50.878;4.742;2022-08-01T11:42:47;2.22;;;1.92;;
10045;SDS011;5063;50.878;4.742;2022-08-01T11:45:14;2.03;;;1.90;;
10045;SDS011;5063;50.878;4.742;2022-08-01T11:50:34;1.73;;;1.63;;
10045;SDS011;5063;50.878;4.742;2022-08-01T11:53:05;1.70;;;1.60;;
10045;SDS011;5063;50.878;4.742;2022-08-01T11:55:32;2.28;;;1.83;;
10045;SDS011;5063;50.878;4.742;2022-08-01T11:58:00;2.47;;;1.70;;
10045;SDS011;5063;50.878;4.742;2022-08-01T12:00:31;2.65;;;2.05;;
10045;SDS011;5063;50.878;4.742;2022-08-01T12:02:59;1.92;;;1.70;;
10045;SDS011;5063;50.878;4.742;2022-08-01T12:05:29;3.47;;;1.90;;
10045;SDS011;5063;50.878;4.742;2022-08-01T12:07:58;4.45;;;1.77;;
10045;SDS011;5063;50.878;4.742;2022-08-01T12:10:26;4.57;;;1.80;;
10045;SDS011;5063;50.878;4.742;2022-08-01T12:13:00;2.05;;;1.75;;
10045;SDS011;5063;50.878;4.742;2022-08-01T12:15:34;3.00;;;1.50;;
10045;SDS011;5063;50.878;4.742;2022-08-01T12:18:04;1.33;;;1.23;;
10045;SDS011;5063;50.878;4.742;2022-08-01T12:20:32;1.70;;;1.48;;
10045;SDS011;5063;50.878;4.742;2022-08-01T12:23:02;1.92;;;1.65;;
10045;SDS011;5063;50.878;4.742;2022-08-01T12:25:30;2.70;;;1.48;;
10045;SDS011;5063;50.878;4.742;2022-08-01T12:28:01;2.20;;;1.30;;
10045;SDS011;5063;50.878;4.742;2022-08-01T12:30:28;1.10;;;1.00;;
10045;SDS011;5063;50.878;4.742;2022-08-01T12:33:02;1.92;;;1.40;;
10045;SDS011;5063;50.878;4.742;2022-08-01T12:35:30;1.88;;;1.20;;
10045;SDS011;5063;50.878;4.742;2022-08-01T12:37:58;3.13;;;1.42;;
10045;SDS011;5063;50.878;4.742;2022-08-01T12:40:30;2.17;;;1.25;;
10045;SDS011;5063;50.878;4.742;2022-08-01T12:42:58;1.25;;;1.10;;
10045;SDS011;5063;50.878;4.742;2022-08-01T12:45:28;1.95;;;1.00;;
10045;SDS011;5063;50.878;4.742;2022-08-01T12:48:08;1.08;;;0.98;;
10045;SDS011;5063;50.878;4.742;2022-08-01T12:50:37;2.13;;;1.30;;
10045;SDS011;5063;50.878;4.742;2022-08-01T12:53:04;2.55;;;1.52;;
10045;SDS011;5063;50.878;4.742;2022-08-01T12:55:31;2.75;;;1.20;;
10045;SDS011;5063;50.878;4.742;2022-08-01T12:58:04;2.20;;;1.25;;
10045;SDS011;5063;50.878;4.742;2022-08-01T13:00:35;2.67;;;1.30;;
10045;SDS011;5063;50.878;4.742;2022-08-01T13:03:02;3.10;;;1.50;;
10045;SDS011;5063;50.878;4.742;2022-08-01T13:05:49;1.13;;;1.00;;
10045;SDS011;5063;50.878;4.742;2022-08-01T13:11:03;2.65;;;1.20;;
10045;SDS011;5063;50.878;4.742;2022-08-01T13:13:39;1.35;;;1.13;;
10045;SDS011;5063;50.878;4.742;2022-08-01T13:16:12;1.33;;;0.90;;
10045;SDS011;5063;50.878;4.742;2022-08-01T13:18:38;1.17;;;1.08;;
10045;SDS011;5063;50.878;4.742;2022-08-01T13:21:08;2.33;;;1.15;;
10045;SDS011;5063;50.878;4.742;2022-08-01T13:23:38;2.83;;;1.25;;
10045;SDS011;5063;50.878;4.742;2022-08-01T13:26:04;1.17;;;1.10;;
10045;SDS011;5063;50.878;4.742;2022-08-01T13:28:30;1.83;;;0.90;;
10045;SDS011;5063;50.878;4.742;2022-08-01T13:31:02;1.83;;;1.02;;
10045;SDS011;5063;50.878;4.742;2022-08-01T13:33:40;1.63;;;1.02;;
10045;SDS011;5063;50.878;4.742;2022-08-01T13:36:10;1.15;;;1.02;;
10045;SDS011;5063;50.878;4.742;2022-08-01T13:38:37;1.23;;;0.93;;
10045;SDS011;5063;50.878;4.742;2022-08-01T13:41:22;1.85;;;1.55;;
10045;SDS011;5063;50.878;4.742;2022-08-01T13:43:48;1.95;;;1.10;;
10045;SDS011;5063;50.878;4.742;2022-08-01T13:46:13;2.90;;;1.10;;
10045;SDS011;5063;50.878;4.742;2022-08-01T13:48:39;2.08;;;1.02;;
10045;SDS011;5063;50.878;4.742;2022-08-01T13:51:05;2.50;;;1.10;;
10045;SDS011;5063;50.878;4.742;2022-08-01T13:53:31;0.85;;;0.82;;
10045;SDS011;5063;50.878;4.742;2022-08-01T13:55:56;2.15;;;1.33;;
10045;SDS011;5063;50.878;4.742;2022-08-01T13:58:22;1.05;;;0.98;;
10045;SDS011;5063;50.878;4.742;2022-08-01T14:00:48;1.67;;;1.20;;
10045;SDS011;5063;50.878;4.742;2022-08-01T14:03:14;1.73;;;1.20;;
10045;SDS011;5063;50.878;4.742;2022-08-01T14:05:42;3.35;;;1.38;;
10045;SDS011;5063;50.878;4.742;2022-08-01T14:08:08;1.80;;;1.10;;
10045;SDS011;5063;50.878;4.742;2022-08-01T14:10:34;1.92;;;1.33;;
10045;SDS011;5063;50.878;4.742;2022-08-01T14:13:00;3.03;;;1.20;;
10045;SDS011;5063;50.878;4.742;2022-08-01T14:15:25;1.20;;;1.13;;
10045;SDS011;5063;50.878;4.742;2022-08-01T14:17:51;2.03;;;1.25;;
10045;SDS011;5063;50.878;4.742;2022-08-01T14:20:17;1.90;;;1.40;;
10045;SDS011;5063;50.878;4.742;2022-08-01T14:22:47;1.10;;;1.00;;
10045;SDS011;5063;50.878;4.742;2022-08-01T14:25:14;2.17;;;1.00;;
10045;SDS011;5063;50.878;4.742;2022-08-01T14:27:40;2.60;;;1.30;;
10045;SDS011;5063;50.878;4.742;2022-08-01T14:30:07;1.40;;;1.00;;
10045;SDS011;5063;50.878;4.742;2022-08-01T14:32:34;1.70;;;1.08;;
10045;SDS011;5063;50.878;4.742;2022-08-01T14:35:03;1.20;;;1.10;;
10045;SDS011;5063;50.878;4.742;2022-08-01T14:37:31;1.55;;;1.30;;
10045;SDS011;5063;50.878;4.742;2022-08-01T14:39:58;0.80;;;0.80;;
10045;SDS011;5063;50.878;4.742;2022-08-01T14:42:24;2.30;;;1.50;;
10045;SDS011;5063;50.878;4.742;2022-08-01T14:44:50;2.30;;;1.13;;
10045;SDS011;5063;50.878;4.742;2022-08-01T14:47:16;2.00;;;1.08;;
10045;SDS011;5063;50.878;4.742;2022-08-01T14:49:42;1.27;;;1.17;;
10045;SDS011;5063;50.878;4.742;2022-08-01T14:52:08;1.35;;;1.20;;
10045;SDS011;5063;50.878;4.742;2022-08-01T14:54:33;1.13;;;1.10;;
10045;SDS011;5063;50.878;4.742;2022-08-01T14:56:59;1.30;;;1.20;;
10045;SDS011;5063;50.878;4.742;2022-08-01T14:59:25;2.38;;;1.20;;
10045;SDS011;5063;50.878;4.742;2022-08-01T15:01:51;1.50;;;1.40;;
10045;SDS011;5063;50.878;4.742;2022-08-01T15:04:16;1.55;;;1.42;;
10045;SDS011;5063;50.878;4.742;2022-08-01T15:06:43;4.38;;;1.52;;
10045;SDS011;5063;50.878;4.742;2022-08-01T15:09:09;3.00;;;1.23;;
10045;SDS011;5063;50.878;4.742;2022-08-01T15:11:35;1.10;;;1.00;;
10045;SDS011;5063;50.878;4.742;2022-08-01T15:14:02;1.15;;;1.05;;
10045;SDS011;5063;50.878;4.742;2022-08-01T15:16:46;6.20;;;1.55;;
10045;SDS011;5063;50.878;4.742;2022-08-01T15:19:12;2.40;;;1.33;;
10045;SDS011;5063;50.878;4.742;2022-08-01T15:21:38;1.92;;;1.20;;
10045;SDS011;5063;50.878;4.742;2022-08-01T15:24:04;1.73;;;1.10;;
10045;SDS011;5063;50.878;4.742;2022-08-01T15:26:31;2.78;;;1.17;;
10045;SDS011;5063;50.878;4.742;2022-08-01T15:28:56;1.13;;;0.80;;
10045;SDS011;5063;50.878;4.742;2022-08-01T15:31:22;0.90;;;0.85;;
10045;SDS011;5063;50.878;4.742;2022-08-01T15:33:48;1.20;;;1.05;;
10045;SDS011;5063;50.878;4.742;2022-08-01T15:36:13;1.80;;;1.20;;
10045;SDS011;5063;50.878;4.742;2022-08-01T15:38:39;2.17;;;1.25;;
10045;SDS011;5063;50.878;4.742;2022-08-01T15:41:05;1.73;;;1.10;;
10045;SDS011;5063;50.878;4.742;2022-08-01T15:43:31;1.08;;;1.08;;
10045;SDS011;5063;50.878;4.742;2022-08-01T15:45:57;1.10;;;1.00;;